August 14, 2022

Time Code Weather Temp. Visibility Ceiling Wind METAR/SPECI
05:50
V
17 °C 10 km+ - Var Var 1 kt METAR EGCC 140450Z AUTO VRB01KT 9999 NCD 17/12 Q1010
05:20
V
17 °C 10 km+ - 050° 050° 1 kt METAR EGCC 140420Z AUTO 05001KT 9999 NCD 17/12 Q1010
04:50
V
18 °C 10 km+ - 030° 030° 2 kt METAR EGCC 140350Z AUTO 03002KT 9999 NCD 18/13 Q1010 NOSIG
04:20
V
18 °C 10 km+ - 070° 070° 2 kt METAR EGCC 140320Z AUTO 07002KT 9999 NCD 18/12 Q1011 NOSIG
03:50
V
17 °C 10 km+ - 020° 020° 3 kt METAR EGCC 140250Z AUTO 02003KT 9999 NCD 17/12 Q1011 NOSIG
03:20
V
18 °C 10 km+ - Var Var 1 kt METAR EGCC 140220Z AUTO VRB01KT 9999 NCD 18/12 Q1011
02:50
V
19 °C 10 km+ - Var Var 1 kt METAR EGCC 140150Z AUTO VRB01KT 9999 NCD 19/12 Q1011
02:20
V
18 °C 10 km+ - Var Var 1 kt METAR EGCC 140120Z AUTO VRB01KT 9999 NCD 18/12 Q1011
01:50
V
19 °C 10 km+ - Var Var 3 kt METAR EGCC 140050Z AUTO VRB03KT 9999 NCD 19/12 Q1011 NOSIG
01:20
V
19 °C 10 km+ - 050° 050° 6 kt METAR EGCC 140020Z AUTO 05006KT 9999 NCD 19/12 Q1012 NOSIG
00:50
V
20 °C 10 km+ - 050° 050° 4 kt METAR EGCC 132350Z AUTO 05004KT 9999 NCD 20/13 Q1012 NOSIG
00:20
V
21 °C 10 km+ - 060° 060° 4 kt METAR EGCC 132320Z AUTO 06004KT 9999 NCD 21/13 Q1012

August 13, 2022

Time Code Weather Temp. Visibility Ceiling Wind METAR/SPECI
23:50
V
22 °C 10 km+ - 060° 060° 6 kt METAR EGCC 132250Z AUTO 06006KT 9999 NCD 22/13 Q1012 NOSIG
23:20
V
22 °C 10 km+ - 060° 060° 7 kt METAR EGCC 132220Z AUTO 06007KT 9999 NCD 22/13 Q1012
22:50
V
21 °C 10 km+ - 060° 060° 7 kt METAR EGCC 132150Z AUTO 06007KT 9999 NCD 21/14 Q1013 NOSIG
22:20
V
23 °C 10 km+ - 070° 070° 6 kt METAR EGCC 132120Z AUTO 07006KT 9999 NCD 23/14 Q1013
21:50
V
23 °C 10 km+ - 080° 080° 6 kt METAR EGCC 132050Z AUTO 08006KT 050V130 9999 NCD 23/14 Q1013 NOSIG
21:20
V
24 °C 10 km+ - 080° 080° 6 kt METAR EGCC 132020Z AUTO 08006KT 9999 NCD 24/14 Q1013
20:50
V
25 °C 10 km+ - 080° 080° 7 kt METAR EGCC 131950Z AUTO 08007KT 060V130 9999 NCD 25/14 Q1013 NOSIG
20:20
V
26 °C 10 km+ - 060° 060° 7 kt METAR EGCC 131920Z AUTO 06007KT 030V090 9999 NCD 26/14 Q1013
19:50
V
27 °C 10 km+ - 080° 080° 5 kt METAR EGCC 131850Z AUTO 08005KT 9999 NCD 27/13 Q1013 NOSIG
19:20
V
28 °C 10 km+ - 080° 080° 5 kt METAR EGCC 131820Z AUTO 08005KT 060V120 9999 NCD 28/13 Q1013
18:50
V
29 °C 10 km+ - 090° 090° 4 kt METAR EGCC 131750Z AUTO 09004KT 060V130 9999 NCD 29/13 Q1013 NOSIG
18:20
V
29 °C 10 km+ - 090° 090° 3 kt METAR EGCC 131720Z AUTO 09003KT 050V200 9999 NCD 29/13 Q1013 NOSIG
17:50
V
30 °C 10 km+ - 090° 090° 4 kt METAR EGCC 131650Z AUTO 09004KT 030V150 9999 NCD 30/13 Q1013
17:20
V
30 °C 10 km+ - 090° 090° 3 kt METAR EGCC 131620Z AUTO 09003KT 040V180 9999 NCD 30/13 Q1013
16:50
V
30 °C 10 km+ - Var Var 4 kt METAR EGCC 131550Z AUTO VRB04KT 9999 NCD 30/13 Q1014
16:20
V
30 °C 10 km+ - Var Var 4 kt METAR EGCC 131520Z AUTO VRB04KT 9999 NCD 30/13 Q1014
15:50
V
30 °C 10 km+ - 080° 080° 6 kt METAR EGCC 131450Z AUTO 08006KT 040V130 9999 NCD 30/13 Q1014 NOSIG
15:20
V
30 °C 10 km+ - Var Var 5 kt METAR EGCC 131420Z AUTO VRB05KT 9999 NCD 30/13 Q1015
14:50
V
30 °C 10 km+ - 090° 090° 4 kt METAR EGCC 131350Z AUTO 09004KT 360V170 9999 NCD 30/13 Q1015 NOSIG
14:20
V
29 °C 10 km+ - Var Var 4 kt METAR EGCC 131320Z AUTO VRB04KT 9999 NCD 29/13 Q1015 NOSIG
13:50
V
29 °C 10 km+ - 130° 130° 5 kt METAR EGCC 131250Z AUTO 13005KT 050V200 9999 NCD 29/13 Q1015 NOSIG
13:20
V
29 °C 10 km+ - Var Var 5 kt METAR EGCC 131220Z AUTO VRB05KT 9999 NCD 29/14 Q1016
12:50
V
28 °C 10 km+ - 080° 080° 5 kt METAR EGCC 131150Z AUTO 08005KT 020V170 9999 NCD 28/13 Q1016 NOSIG
12:20
V
28 °C 10 km+ - 080° 080° 5 kt METAR EGCC 131120Z AUTO 08005KT 040V150 9999 NCD 28/13 Q1016
11:50
V
27 °C 10 km+ - 090° 090° 4 kt METAR EGCC 131050Z AUTO 09004KT 050V180 9999 NCD 27/14 Q1016 NOSIG
11:20
V
27 °C 10 km+ - 060° 060° 6 kt METAR EGCC 131020Z AUTO 06006KT 040V100 9999 NCD 27/13 Q1017
10:50
V
26 °C 10 km+ - Var Var 5 kt METAR EGCC 130950Z AUTO VRB05KT 9999 NCD 26/14 Q1017 NOSIG
10:20
V
26 °C 10 km+ - 080° 080° 4 kt METAR EGCC 130920Z AUTO 08004KT 030V150 9999 NCD 26/14 Q1017
09:50
V
24 °C 10 km+ - 040° 040° 5 kt METAR EGCC 130850Z AUTO 04005KT 9999 NCD 24/14 Q1017 NOSIG
09:20
V
23 °C 10 km+ - 050° 050° 4 kt METAR EGCC 130820Z AUTO 05004KT 030V100 9999 NCD 23/14 Q1017
08:50
V
23 °C 10 km+ - 050° 050° 5 kt METAR EGCC 130750Z AUTO 05005KT 9999 NCD 23/13 Q1017 NOSIG
08:20
V
21 °C 10 km+ - 040° 040° 6 kt METAR EGCC 130720Z AUTO 04006KT 9999 NCD 21/12 Q1017 NOSIG
07:50
V
20 °C 10 km+ - 050° 050° 5 kt METAR EGCC 130650Z AUTO 05005KT 9999 NCD 20/12 Q1017
07:20
V
18 °C 10 km+ - 050° 050° 4 kt METAR EGCC 130620Z AUTO 05004KT 9999 NCD 18/12 Q1017
06:50
V
16 °C 10 km+ - 060° 060° 4 kt METAR EGCC 130550Z AUTO 06004KT 9999 NCD 16/11 Q1017
06:20
V
16 °C 10 km+ - 060° 060° 6 kt METAR EGCC 130520Z AUTO 06006KT 9999 NCD 16/11 Q1017 NOSIG
05:50
V
16 °C 10 km+ - 070° 070° 3 kt METAR EGCC 130450Z AUTO 07003KT 9999 NCD 16/11 Q1017
05:20
V
16 °C 10 km+ - Var Var 2 kt METAR EGCC 130420Z AUTO VRB02KT 9999 NCD 16/11 Q1017
04:50
V
16 °C 10 km+ - Var Var 2 kt METAR EGCC 130350Z AUTO VRB02KT 9999 NCD 16/11 Q1017
04:20
V
17 °C 10 km+ - 080° 080° 4 kt METAR EGCC 130320Z AUTO 08004KT 9999 NCD 17/11 Q1018 NOSIG
03:50
V
17 °C 10 km+ - Var Var 2 kt METAR EGCC 130250Z AUTO VRB02KT 9999 NCD 17/11 Q1018 NOSIG
03:20
V
17 °C 10 km+ - 050° 050° 4 kt METAR EGCC 130220Z AUTO 05004KT 9999 NCD 17/11 Q1018 NOSIG
02:50
V
16 °C 10 km+ - 050° 050° 4 kt METAR EGCC 130150Z AUTO 05004KT 9999 NCD 16/11 Q1018
02:20
V
18 °C 10 km+ - Var Var 2 kt METAR EGCC 130120Z AUTO VRB02KT 9999 NCD 18/11 Q1018
01:50
V
18 °C 10 km+ - 030° 030° 3 kt METAR EGCC 130050Z AUTO 03003KT 9999 NCD 18/11 Q1018 NOSIG
01:20
V
19 °C 10 km+ - Var Var 1 kt METAR EGCC 130020Z AUTO VRB01KT 9999 NCD 19/11 Q1018
00:50
V
19 °C 10 km+ - Var Var 1 kt METAR EGCC 122350Z AUTO VRB01KT 9999 NCD 19/12 Q1018
00:20
V
20 °C 10 km+ - 300° 300° 1 kt METAR EGCC 122320Z AUTO 30001KT 9999 NCD 20/12 Q1018

August 12, 2022

Time Code Weather Temp. Visibility Ceiling Wind METAR/SPECI
23:50
V
21 °C 10 km+ - Var Var 1 kt METAR EGCC 122250Z AUTO VRB01KT 9999 NCD 21/12 Q1018
23:20
V
21 °C 10 km+ - 080° 080° 5 kt METAR EGCC 122220Z AUTO 08005KT 9999 NCD 21/11 Q1018
22:50
V
22 °C 10 km+ - 080° 080° 6 kt METAR EGCC 122150Z AUTO 08006KT 9999 NCD 22/12 Q1018
22:20
V
23 °C 10 km+ - 080° 080° 6 kt METAR EGCC 122120Z AUTO 08006KT 050V110 9999 NCD 23/12 Q1018
21:50
V
23 °C 10 km+ - 090° 090° 6 kt METAR EGCC 122050Z AUTO 09006KT 050V120 9999 NCD 23/13 Q1018 NOSIG
21:20
V
25 °C 10 km+ - 090° 090° 6 kt METAR EGCC 122020Z AUTO 09006KT 050V140 9999 NCD 25/13 Q1018
20:50
V
25 °C 10 km+ - 080° 080° 7 kt METAR EGCC 121950Z AUTO 08007KT 050V140 9999 NCD 25/13 Q1018 NOSIG
20:20
V
26 °C 10 km+ - 080° 080° 7 kt METAR EGCC 121920Z AUTO 08007KT 9999 NCD 26/13 Q1018
19:50
V
28 °C 10 km+ - 080° 080° 7 kt METAR EGCC 121850Z AUTO 08007KT 050V120 9999 NCD 28/13 Q1017
19:20
V
29 °C 10 km+ - 080° 080° 3 kt METAR EGCC 121820Z AUTO 08003KT 9999 NCD 29/13 Q1017
18:50
V
29 °C 10 km+ - 070° 070° 4 kt METAR EGCC 121750Z AUTO 07004KT 050V130 9999 NCD 29/13 Q1017
18:20
V
30 °C 10 km+ - 080° 080° 3 kt METAR EGCC 121720Z AUTO 08003KT 040V110 9999 NCD 30/12 Q1018
17:50
V
30 °C 10 km+ - 100° 100° 3 kt METAR EGCC 121650Z AUTO 10003KT 040V150 9999 NCD 30/11 Q1018
17:20
V
30 °C 10 km+ - 080° 080° 3 kt METAR EGCC 121620Z 08003KT 040V170 CAVOK 30/12 Q1018 NOSIG
16:50
V
30 °C 10 km+ - 080° 080° 5 kt METAR EGCC 121550Z AUTO 08005KT 030V130 9999 NCD 30/11 Q1018 NOSIG
16:20
V
30 °C 10 km+ - 090° 090° 3 kt METAR EGCC 121520Z AUTO 09003KT 020V160 9999 NCD 30/11 Q1018
15:50
V
30 °C 10 km+ - Var Var 3 kt METAR EGCC 121450Z AUTO VRB03KT 9999 NCD 30/11 Q1019 NOSIG
15:20
V
30 °C 10 km+ - Var Var 3 kt METAR EGCC 121420Z AUTO VRB03KT 9999 NCD 30/11 Q1019
14:50
V
30 °C 10 km+ - 060° 060° 7 kt METAR EGCC 121350Z AUTO 06007KT 030V110 9999 NCD 30/11 Q1019 NOSIG
14:20
V
29 °C 10 km+ - Var Var 4 kt METAR EGCC 121320Z AUTO VRB04KT 9999 NCD 29/12 Q1019
13:50
V
29 °C 10 km+ - 070° 070° 6 kt METAR EGCC 121250Z AUTO 07006KT 020V130 9999 NCD 29/11 Q1019
13:20
V
28 °C 10 km+ - Var Var 3 kt METAR EGCC 121220Z AUTO VRB03KT 9999 NCD 28/11 Q1020 NOSIG
12:50
V
28 °C 10 km+ - 100° 100° 4 kt METAR EGCC 121150Z AUTO 10004KT 040V180 9999 NCD 28/12 Q1020 NOSIG
12:20
V
28 °C 10 km+ - 090° 090° 4 kt METAR EGCC 121120Z AUTO 09004KT 040V160 9999 NCD 28/12 Q1020
11:50
V
27 °C 10 km+ - Var Var 3 kt METAR EGCC 121050Z AUTO VRB03KT 9999 NCD 27/12 Q1020 NOSIG
11:20
V
27 °C 10 km+ - Var Var 3 kt METAR EGCC 121020Z AUTO VRB03KT 9999 NCD 27/12 Q1021 NOSIG
10:50
V
26 °C 10 km+ - 120° 120° 3 kt METAR EGCC 120950Z AUTO 12003KT 050V190 9999 NCD 26/13 Q1021 NOSIG
10:20
V
26 °C 10 km+ - 080° 080° 4 kt METAR EGCC 120920Z AUTO 08004KT 040V160 9999 NCD 26/13 Q1021 NOSIG
09:50
V
25 °C 10 km+ - 080° 080° 6 kt METAR EGCC 120850Z AUTO 08006KT 050V120 9999 NCD 25/13 Q1021 NOSIG
09:20
V
25 °C 10 km+ - Var Var 2 kt METAR EGCC 120820Z AUTO VRB02KT 9999 NCD 25/13 Q1021 NOSIG
08:50
V
23 °C 10 km+ - Var Var 2 kt METAR EGCC 120750Z AUTO VRB02KT 9999 NCD 23/13 Q1021 NOSIG
08:20
V
22 °C 10 km+ - Var Var 1 kt METAR EGCC 120720Z AUTO VRB01KT 9999 NCD 22/14 Q1021 NOSIG
07:50
V
20 °C 10 km+ - Var Var 1 kt METAR EGCC 120650Z AUTO VRB01KT 9999 NCD 20/14 Q1021 NOSIG
07:20
V
18 °C 10 km+ - 060° 060° 2 kt METAR EGCC 120620Z AUTO 06002KT 9999 NCD 18/13 Q1021 NOSIG
06:50
V
17 °C 10 km+ - Var Var 1 kt METAR EGCC 120550Z VRB01KT CAVOK 17/12 Q1021 NOSIG
06:20
V
16 °C 10 km+ - Var Var 1 kt METAR EGCC 120520Z AUTO VRB01KT 9999 NCD 16/11 Q1021
05:50
V
15 °C 10 km+ - Var Var 2 kt METAR EGCC 120450Z AUTO VRB02KT 9999 NCD 15/11 Q1021
05:20
V
15 °C 10 km+ - 120° 120° 2 kt METAR EGCC 120420Z AUTO 12002KT 9999 -DZ NCD 15/12 Q1021
04:50
V
16 °C 10 km+ - Var Var 2 kt METAR EGCC 120350Z VRB02KT CAVOK 16/12 Q1021
04:20
V
16 °C 10 km+ - 110° 110° 2 kt METAR EGCC 120320Z AUTO 11002KT 9999 NCD 16/12 Q1021 NOSIG
03:50
V
17 °C 10 km+ - Var Var 1 kt METAR EGCC 120250Z VRB01KT CAVOK 17/11 Q1021
03:20
I
18 °C 4.8 km - Var Var 1 kt METAR EGCC 120220Z AUTO VRB01KT 4800 HZ NCD 18/12 Q1021 RERA
02:50
V
16 °C 10 km+ - Var Var 2 kt METAR EGCC 120150Z AUTO VRB02KT 9999 NCD 16/12 Q1021 NOSIG
02:20
V
16 °C 10 km+ - Var Var 1 kt METAR EGCC 120120Z VRB01KT CAVOK 16/12 Q1021 RERA
01:50
V
17 °C 10 km+ - Var Var 1 kt METAR EGCC 120050Z AUTO VRB01KT 9999 NCD 17/12 Q1022 NOSIG
01:20
V
18 °C 10 km+ - Var Var 1 kt METAR EGCC 120020Z AUTO VRB01KT 9999 NCD 18/12 Q1022
Older data

We and third parties follow your internet behavior on our website with cookies. If you continue, we assume you agree with our cookie policy. Learn more